Straumbas — LIOD — position and weather

sailwx.info

Track history (hours):
 
Tides and Currents Weather Stations Pressure Air Temp Water Temp Dewpoint Dewpoint Depression Visibility Wind Speed Wind Dir Waves Ship Positions

Straumbas

Last reported at 2016-Jun-20 10:25 UTC. Time now 2016-Jun-27 16:55 UTC.
Position N 59°47' E 005°20'.

Length 38 m; draft 5.5 m.

Type: Fishing. MMSI: 258035000.

Date/timePositionNaut miles runAvg speedWind from/ knotsBaromVisibWave heightAir tempDewpointWater temp
2016-Jun-20 10:25N 59°47' E 005°20'8 9.2
2016-Jun-20 09:33N 59°44' E 005°34'9 9.4
2016-Jun-20 08:33N 59°37' E 005°48'  
2016-Jun-17 09:33N 59°36' E 005°45'3 0.3
2016-Jun-16 23:33N 59°39' E 005°46'9 9.1
2016-Jun-16 22:33N 59°44' E 005°31'10 9.1
2016-Jun-16 21:30N 59°37' E 005°18'82 7.4
2016-Jun-16 10:31N 59°47' E 002°37'6 6.2
2016-Jun-16 09:32N 59°49' E 002°26'5 4.8
2016-Jun-16 08:31N 59°54' E 002°29'8 7.5
2016-Jun-16 07:24N 59°55' E 002°46'2 1.1
2016-Jun-16 05:33N 59°56' E 002°49'6 4.4
2016-Jun-16 04:15N 59°58' E 003°00'2 3.4
2016-Jun-16 03:33N 60°00' E 002°60'3 2.7
2016-Jun-16 02:33N 60°03' E 002°59'3 2.6
2016-Jun-16 01:16N 60°06' E 002°58'10 5.3
2016-Jun-15 23:18N 60°17' E 003°01'6 7.5
2016-Jun-15 22:33N 60°19' E 002°50'2 2.2
2016-Jun-15 21:31N 60°19' E 002°55'2 1.6
2016-Jun-15 20:33N 60°19' E 002°57'3 2.6
2016-Jun-15 19:33N 60°22' E 002°58'0 0.4
2016-Jun-15 18:33N 60°22' E 002°57'0 0.3
2016-Jun-15 17:29N 60°22' E 002°57'0 0.2
2016-Jun-15 16:33N 60°22' E 002°56'0 0.2
2016-Jun-15 15:32N 60°22' E 002°57'4 3.9
2016-Jun-15 14:31N 60°26' E 002°53'5 4.8
2016-Jun-15 13:28N 60°21' E 002°51'5 4.6
2016-Jun-15 12:27N 60°17' E 002°54'59 4.0
2016-Jun-14 21:33N 59°42' E 004°30'21 8.5
2016-Jun-14 19:04N 59°30' E 005°04'6 8.8
2016-Jun-14 18:23N 59°26' E 005°13'7 7.6
2016-Jun-14 17:31N 59°20' E 005°18'1 0.6
2016-Jun-14 16:33N 59°20' E 005°17'0 0.0
2016-Jun-14 15:32N 59°20' E 005°17'0 0.0
2016-Jun-14 14:32N 59°20' E 005°17'0 0.0
2016-Jun-14 13:33N 59°20' E 005°17'0 0.0
2016-Jun-14 12:33N 59°20' E 005°17'0 0.0
2016-Jun-14 11:32N 59°20' E 005°17'0 0.0
2016-Jun-14 10:33N 59°20' E 005°17'0 0.0
2016-Jun-14 09:34N 59°20' E 005°17'0 0.0
2016-Jun-14 08:32N 59°20' E 005°17'0 0.0
2016-Jun-14 07:32N 59°20' E 005°17'0 0.2
2016-Jun-14 05:33N 59°20' E 005°18'0 0.0
2016-Jun-14 04:33N 59°20' E 005°18'0 0.0
2016-Jun-14 03:33N 59°20' E 005°18'0 0.0
2016-Jun-14 02:32N 59°20' E 005°18'0 0.0
2016-Jun-14 01:33N 59°20' E 005°18'5 4.2
2016-Jun-14 00:22N 59°15' E 005°20'7 8.4
2016-Jun-13 23:33N 59°09' E 005°21'9 9.4
2016-Jun-13 22:33N 58°59' E 005°21'1010.2
2016-Jun-13 21:33N 58°49' E 005°22'1010.2
2016-Jun-13 20:34N 58°39' E 005°28'1010.0
2016-Jun-13 19:32N 58°31' E 005°40'9 9.6
2016-Jun-13 18:33N 58°25' E 005°53'4 4.2
2016-Jun-13 17:33N 58°27' E 005°59'0 0.0
2016-Jun-13 16:33N 58°27' E 005°59'0 0.1
2016-Jun-13 15:33N 58°27' E 005°59'0 0.1
2016-Jun-13 14:33N 58°27' E 005°60'0 0.3
2016-Jun-13 13:33N 58°27' E 005°60'0 0.0
2016-Jun-13 12:33N 58°27' E 005°60'0 0.0
2016-Jun-13 11:33N 58°27' E 005°60'0 0.0
2016-Jun-13 10:33N 58°27' E 005°60'0 0.0
2016-Jun-13 09:33N 58°27' E 005°60'0 0.0
2016-Jun-13 08:33N 58°27' E 005°60'0 0.0
2016-Jun-13 07:33N 58°27' E 005°60'0 0.0
2016-Jun-13 06:33N 58°27' E 005°60'0 0.0
2016-Jun-13 05:33N 58°27' E 005°60'0 0.0
2016-Jun-13 04:33N 58°27' E 005°60'0 0.0
2016-Jun-13 03:33N 58°27' E 005°60'0 0.0
2016-Jun-13 02:33N 58°27' E 005°60'0 0.0
2016-Jun-13 01:33N 58°27' E 005°60'0 0.0
2016-Jun-13 00:33N 58°27' E 005°60'0 0.0
2016-Jun-12 23:33N 58°27' E 005°60'0 0.0
2016-Jun-12 22:33N 58°27' E 005°60'0 0.0
2016-Jun-12 21:33N 58°27' E 005°60'0 0.3
2016-Jun-12 20:33N 58°27' E 005°59'0 0.0
2016-Jun-12 19:33N 58°27' E 005°59'0 0.0
2016-Jun-12 18:33N 58°27' E 005°59'0 0.0
2016-Jun-12 17:33N 58°27' E 005°59'4 3.5
2016-Jun-12 16:33N 58°24' E 005°55'7 7.3
2016-Jun-12 15:33N 58°28' E 005°43'7 7.2
2016-Jun-12 14:33N 58°32' E 005°31'8 8.4
2016-Jun-12 13:33N 58°37' E 005°18'9 9.5
2016-Jun-12 12:33N 58°43' E 005°04'9 8.9
2016-Jun-12 11:33N 58°49' E 004°51'38 0.8
2016-Jun-10 13:33N 59°25' E 005°16'0 0.0
2016-Jun-10 12:33N 59°25' E 005°16'0 0.0
2016-Jun-10 11:33N 59°25' E 005°16'0 0.0
2016-Jun-10 10:33N 59°25' E 005°16'  
Track history (hours):
 
Tides and Currents Weather Stations Pressure Air Temp Water Temp Dewpoint Dewpoint Depression Visibility Wind Speed Wind Dir Waves Ship Positions

Straumbas

Last reported at 2016-Jun-20 10:25 UTC. Time now 2016-Jun-27 16:55 UTC.
Position N 59°47' E 005°20'.

Length 38 m; draft 5.5 m.

Type: Fishing. MMSI: 258035000.

Date/timePositionNaut miles runAvg speedWind from/ knotsBaromVisibWave heightAir tempDewpointWater temp
2016-Jun-20 10:25N 59°47' E 005°20'8 9.2
2016-Jun-20 09:33N 59°44' E 005°34'9 9.4
2016-Jun-20 08:33N 59°37' E 005°48'  
2016-Jun-17 09:33N 59°36' E 005°45'3 0.3
2016-Jun-16 23:33N 59°39' E 005°46'9 9.1
2016-Jun-16 22:33N 59°44' E 005°31'10 9.1
2016-Jun-16 21:30N 59°37' E 005°18'82 7.4
2016-Jun-16 10:31N 59°47' E 002°37'6 6.2
2016-Jun-16 09:32N 59°49' E 002°26'5 4.8
2016-Jun-16 08:31N 59°54' E 002°29'8 7.5
2016-Jun-16 07:24N 59°55' E 002°46'2 1.1
2016-Jun-16 05:33N 59°56' E 002°49'6 4.4
2016-Jun-16 04:15N 59°58' E 003°00'2 3.4
2016-Jun-16 03:33N 60°00' E 002°60'3 2.7
2016-Jun-16 02:33N 60°03' E 002°59'3 2.6
2016-Jun-16 01:16N 60°06' E 002°58'10 5.3
2016-Jun-15 23:18N 60°17' E 003°01'6 7.5
2016-Jun-15 22:33N 60°19' E 002°50'2 2.2
2016-Jun-15 21:31N 60°19' E 002°55'2 1.6
2016-Jun-15 20:33N 60°19' E 002°57'3 2.6
2016-Jun-15 19:33N 60°22' E 002°58'0 0.4
2016-Jun-15 18:33N 60°22' E 002°57'0 0.3
2016-Jun-15 17:29N 60°22' E 002°57'0 0.2
2016-Jun-15 16:33N 60°22' E 002°56'0 0.2
2016-Jun-15 15:32N 60°22' E 002°57'4 3.9
2016-Jun-15 14:31N 60°26' E 002°53'5 4.8
2016-Jun-15 13:28N 60°21' E 002°51'5 4.6
2016-Jun-15 12:27N 60°17' E 002°54'59 4.0
2016-Jun-14 21:33N 59°42' E 004°30'21 8.5
2016-Jun-14 19:04N 59°30' E 005°04'6 8.8
2016-Jun-14 18:23N 59°26' E 005°13'7 7.6
2016-Jun-14 17:31N 59°20' E 005°18'1 0.6
2016-Jun-14 16:33N 59°20' E 005°17'0 0.0
2016-Jun-14 15:32N 59°20' E 005°17'0 0.0
2016-Jun-14 14:32N 59°20' E 005°17'0 0.0
2016-Jun-14 13:33N 59°20' E 005°17'0 0.0
2016-Jun-14 12:33N 59°20' E 005°17'0 0.0
2016-Jun-14 11:32N 59°20' E 005°17'0 0.0
2016-Jun-14 10:33N 59°20' E 005°17'0 0.0
2016-Jun-14 09:34N 59°20' E 005°17'0 0.0
2016-Jun-14 08:32N 59°20' E 005°17'0 0.0
2016-Jun-14 07:32N 59°20' E 005°17'0 0.2
2016-Jun-14 05:33N 59°20' E 005°18'0 0.0
2016-Jun-14 04:33N 59°20' E 005°18'0 0.0
2016-Jun-14 03:33N 59°20' E 005°18'0 0.0
2016-Jun-14 02:32N 59°20' E 005°18'0 0.0
2016-Jun-14 01:33N 59°20' E 005°18'5 4.2
2016-Jun-14 00:22N 59°15' E 005°20'7 8.4
2016-Jun-13 23:33N 59°09' E 005°21'9 9.4
2016-Jun-13 22:33N 58°59' E 005°21'1010.2
2016-Jun-13 21:33N 58°49' E 005°22'1010.2
2016-Jun-13 20:34N 58°39' E 005°28'1010.0
2016-Jun-13 19:32N 58°31' E 005°40'9 9.6
2016-Jun-13 18:33N 58°25' E 005°53'4 4.2
2016-Jun-13 17:33N 58°27' E 005°59'0 0.0
2016-Jun-13 16:33N 58°27' E 005°59'0 0.1
2016-Jun-13 15:33N 58°27' E 005°59'0 0.1
2016-Jun-13 14:33N 58°27' E 005°60'0 0.3
2016-Jun-13 13:33N 58°27' E 005°60'0 0.0
2016-Jun-13 12:33N 58°27' E 005°60'0 0.0
2016-Jun-13 11:33N 58°27' E 005°60'0 0.0
2016-Jun-13 10:33N 58°27' E 005°60'0 0.0
2016-Jun-13 09:33N 58°27' E 005°60'0 0.0
2016-Jun-13 08:33N 58°27' E 005°60'0 0.0
2016-Jun-13 07:33N 58°27' E 005°60'0 0.0
2016-Jun-13 06:33N 58°27' E 005°60'0 0.0
2016-Jun-13 05:33N 58°27' E 005°60'0 0.0
2016-Jun-13 04:33N 58°27' E 005°60'0 0.0
2016-Jun-13 03:33N 58°27' E 005°60'0 0.0
2016-Jun-13 02:33N 58°27' E 005°60'0 0.0
2016-Jun-13 01:33N 58°27' E 005°60'0 0.0
2016-Jun-13 00:33N 58°27' E 005°60'0 0.0
2016-Jun-12 23:33N 58°27' E 005°60'0 0.0
2016-Jun-12 22:33N 58°27' E 005°60'0 0.0
2016-Jun-12 21:33N 58°27' E 005°60'0 0.3
2016-Jun-12 20:33N 58°27' E 005°59'0 0.0
2016-Jun-12 19:33N 58°27' E 005°59'0 0.0
2016-Jun-12 18:33N 58°27' E 005°59'0 0.0
2016-Jun-12 17:33N 58°27' E 005°59'4 3.5
2016-Jun-12 16:33N 58°24' E 005°55'7 7.3
2016-Jun-12 15:33N 58°28' E 005°43'7 7.2
2016-Jun-12 14:33N 58°32' E 005°31'8 8.4
2016-Jun-12 13:33N 58°37' E 005°18'9 9.5
2016-Jun-12 12:33N 58°43' E 005°04'9 8.9
2016-Jun-12 11:33N 58°49' E 004°51'38 0.8
2016-Jun-10 13:33N 59°25' E 005°16'0 0.0
2016-Jun-10 12:33N 59°25' E 005°16'0 0.0
2016-Jun-10 11:33N 59°25' E 005°16'0 0.0
2016-Jun-10 10:33N 59°25' E 005°16'  

Dump ship's entire track history